sensor_id;sensor_type;location;lat;lon;timestamp;temperature;humidity
78733;DHT22;68056;52.530;5.454;2023-08-08T00:00:48;15.80;70.60
78733;DHT22;68056;52.530;5.454;2023-08-08T00:03:14;15.80;70.70
78733;DHT22;68056;52.530;5.454;2023-08-08T00:05:39;15.80;70.70
78733;DHT22;68056;52.530;5.454;2023-08-08T00:08:05;15.80;70.70
78733;DHT22;68056;52.530;5.454;2023-08-08T00:10:31;15.80;70.90
78733;DHT22;68056;52.530;5.454;2023-08-08T00:12:57;15.80;71.00
78733;DHT22;68056;52.530;5.454;2023-08-08T00:15:22;15.80;71.00
78733;DHT22;68056;52.530;5.454;2023-08-08T00:17:48;15.80;71.00
78733;DHT22;68056;52.530;5.454;2023-08-08T00:20:13;15.80;71.00
78733;DHT22;68056;52.530;5.454;2023-08-08T00:22:39;15.80;71.00
78733;DHT22;68056;52.530;5.454;2023-08-08T00:25:05;15.80;71.00
78733;DHT22;68056;52.530;5.454;2023-08-08T00:27:31;15.80;71.10
78733;DHT22;68056;52.530;5.454;2023-08-08T00:29:56;15.80;71.10
78733;DHT22;68056;52.530;5.454;2023-08-08T00:32:22;15.80;71.20
78733;DHT22;68056;52.530;5.454;2023-08-08T00:34:47;15.80;71.30
78733;DHT22;68056;52.530;5.454;2023-08-08T00:37:13;15.80;71.30
78733;DHT22;68056;52.530;5.454;2023-08-08T00:39:39;15.80;71.40
78733;DHT22;68056;52.530;5.454;2023-08-08T00:42:07;15.80;71.50
78733;DHT22;68056;52.530;5.454;2023-08-08T00:44:33;15.80;71.50
78733;DHT22;68056;52.530;5.454;2023-08-08T00:46:59;15.80;71.50
78733;DHT22;68056;52.530;5.454;2023-08-08T00:49:24;15.80;71.50
78733;DHT22;68056;52.530;5.454;2023-08-08T00:51:50;15.80;71.50
78733;DHT22;68056;52.530;5.454;2023-08-08T00:54:16;15.80;71.60
78733;DHT22;68056;52.530;5.454;2023-08-08T00:56:41;15.80;71.60
78733;DHT22;68056;52.530;5.454;2023-08-08T00:59:08;15.80;71.80
78733;DHT22;68056;52.530;5.454;2023-08-08T01:01:37;15.90;71.80
78733;DHT22;68056;52.530;5.454;2023-08-08T01:04:02;15.90;71.80
78733;DHT22;68056;52.530;5.454;2023-08-08T01:06:43;15.90;71.90
78733;DHT22;68056;52.530;5.454;2023-08-08T01:09:21;15.90;71.90
78733;DHT22;68056;52.530;5.454;2023-08-08T01:11:49;16.00;72.00
78733;DHT22;68056;52.530;5.454;2023-08-08T01:14:16;16.00;72.10
78733;DHT22;68056;52.530;5.454;2023-08-08T01:16:44;16.00;72.20
78733;DHT22;68056;52.530;5.454;2023-08-08T01:19:14;16.00;72.20
78733;DHT22;68056;52.530;5.454;2023-08-08T01:21:43;16.00;72.00
78733;DHT22;68056;52.530;5.454;2023-08-08T01:24:25;16.00;71.70
78733;DHT22;68056;52.530;5.454;2023-08-08T01:26:54;16.10;71.40
78733;DHT22;68056;52.530;5.454;2023-08-08T01:29:20;16.10;71.20
78733;DHT22;68056;52.530;5.454;2023-08-08T01:31:45;16.10;70.90
78733;DHT22;68056;52.530;5.454;2023-08-08T01:34:11;16.10;70.80
78733;DHT22;68056;52.530;5.454;2023-08-08T01:36:50;16.10;70.60
78733;DHT22;68056;52.530;5.454;2023-08-08T01:39:25;16.10;70.40
78733;DHT22;68056;52.530;5.454;2023-08-08T01:41:53;16.20;70.20
78733;DHT22;68056;52.530;5.454;2023-08-08T01:44:19;16.20;70.00
78733;DHT22;68056;52.530;5.454;2023-08-08T01:46:47;16.20;70.00
78733;DHT22;68056;52.530;5.454;2023-08-08T01:49:13;16.20;69.90
78733;DHT22;68056;52.530;5.454;2023-08-08T01:51:38;16.20;69.70
78733;DHT22;68056;52.530;5.454;2023-08-08T01:54:04;16.20;69.50
78733;DHT22;68056;52.530;5.454;2023-08-08T01:56:29;16.20;69.40
78733;DHT22;68056;52.530;5.454;2023-08-08T01:58:55;16.20;69.20
78733;DHT22;68056;52.530;5.454;2023-08-08T02:01:21;16.20;69.00
78733;DHT22;68056;52.530;5.454;2023-08-08T02:03:47;16.20;68.90
78733;DHT22;68056;52.530;5.454;2023-08-08T02:06:13;16.20;68.80
78733;DHT22;68056;52.530;5.454;2023-08-08T02:08:38;16.20;68.80
78733;DHT22;68056;52.530;5.454;2023-08-08T02:11:04;16.20;68.60
78733;DHT22;68056;52.530;5.454;2023-08-08T02:13:30;16.20;68.60
78733;DHT22;68056;52.530;5.454;2023-08-08T02:15:55;16.20;68.50
78733;DHT22;68056;52.530;5.454;2023-08-08T02:18:21;16.20;68.50
78733;DHT22;68056;52.530;5.454;2023-08-08T02:20:47;16.20;68.30
78733;DHT22;68056;52.530;5.454;2023-08-08T02:23:12;16.20;68.30
78733;DHT22;68056;52.530;5.454;2023-08-08T02:25:38;16.20;68.20
78733;DHT22;68056;52.530;5.454;2023-08-08T02:28:04;16.20;68.10
78733;DHT22;68056;52.530;5.454;2023-08-08T02:30:29;16.20;68.00
78733;DHT22;68056;52.530;5.454;2023-08-08T02:32:55;16.20;67.90
78733;DHT22;68056;52.530;5.454;2023-08-08T02:35:22;16.20;67.80
78733;DHT22;68056;52.530;5.454;2023-08-08T02:37:51;16.20;67.80
78733;DHT22;68056;52.530;5.454;2023-08-08T02:40:17;16.20;67.70
78733;DHT22;68056;52.530;5.454;2023-08-08T02:42:42;16.20;67.60
78733;DHT22;68056;52.530;5.454;2023-08-08T02:45:08;16.20;67.50
78733;DHT22;68056;52.530;5.454;2023-08-08T02:47:34;16.20;67.50
78733;DHT22;68056;52.530;5.454;2023-08-08T02:50:00;16.20;67.30
78733;DHT22;68056;52.530;5.454;2023-08-08T02:52:25;16.20;67.10
78733;DHT22;68056;52.530;5.454;2023-08-08T02:54:51;16.30;67.00
78733;DHT22;68056;52.530;5.454;2023-08-08T02:57:26;16.30;67.00
78733;DHT22;68056;52.530;5.454;2023-08-08T02:59:52;16.30;66.90
78733;DHT22;68056;52.530;5.454;2023-08-08T03:02:17;16.30;66.90
78733;DHT22;68056;52.530;5.454;2023-08-08T03:04:43;16.30;67.00
78733;DHT22;68056;52.530;5.454;2023-08-08T03:07:08;16.40;66.90
78733;DHT22;68056;52.530;5.454;2023-08-08T03:09:34;16.40;66.90
78733;DHT22;68056;52.530;5.454;2023-08-08T03:12:00;16.40;67.00
78733;DHT22;68056;52.530;5.454;2023-08-08T03:14:25;16.40;66.90
78733;DHT22;68056;52.530;5.454;2023-08-08T03:16:51;16.30;66.90
78733;DHT22;68056;52.530;5.454;2023-08-08T03:19:16;16.40;66.90
78733;DHT22;68056;52.530;5.454;2023-08-08T03:21:42;16.40;67.00
78733;DHT22;68056;52.530;5.454;2023-08-08T03:24:08;16.40;67.00
78733;DHT22;68056;52.530;5.454;2023-08-08T03:26:33;16.40;67.00
78733;DHT22;68056;52.530;5.454;2023-08-08T03:28:59;16.40;67.10
78733;DHT22;68056;52.530;5.454;2023-08-08T03:31:25;16.40;67.00
78733;DHT22;68056;52.530;5.454;2023-08-08T03:33:51;16.40;67.00
78733;DHT22;68056;52.530;5.454;2023-08-08T03:36:17;16.30;67.10
78733;DHT22;68056;52.530;5.454;2023-08-08T03:38:42;16.30;67.20
78733;DHT22;68056;52.530;5.454;2023-08-08T03:41:12;16.30;67.20
78733;DHT22;68056;52.530;5.454;2023-08-08T03:43:39;16.30;67.20
78733;DHT22;68056;52.530;5.454;2023-08-08T03:46:04;16.30;67.10
78733;DHT22;68056;52.530;5.454;2023-08-08T03:48:30;16.40;67.10
78733;DHT22;68056;52.530;5.454;2023-08-08T03:50:55;16.30;67.20
78733;DHT22;68056;52.530;5.454;2023-08-08T03:53:21;16.30;67.10
78733;DHT22;68056;52.530;5.454;2023-08-08T03:55:47;16.40;67.20
78733;DHT22;68056;52.530;5.454;2023-08-08T03:58:12;16.30;67.20
78733;DHT22;68056;52.530;5.454;2023-08-08T04:00:38;16.20;67.20
78733;DHT22;68056;52.530;5.454;2023-08-08T04:03:14;16.20;67.30
78733;DHT22;68056;52.530;5.454;2023-08-08T04:05:40;16.20;67.50
78733;DHT22;68056;52.530;5.454;2023-08-08T04:08:06;16.20;67.50
78733;DHT22;68056;52.530;5.454;2023-08-08T04:10:32;16.20;67.50
78733;DHT22;68056;52.530;5.454;2023-08-08T04:12:58;16.10;67.50
78733;DHT22;68056;52.530;5.454;2023-08-08T04:15:23;16.10;67.50
78733;DHT22;68056;52.530;5.454;2023-08-08T04:20:47;16.10;67.50
78733;DHT22;68056;52.530;5.454;2023-08-08T04:23:13;16.10;67.50
78733;DHT22;68056;52.530;5.454;2023-08-08T04:25:39;16.00;67.50
78733;DHT22;68056;52.530;5.454;2023-08-08T04:28:04;16.00;67.50
78733;DHT22;68056;52.530;5.454;2023-08-08T04:30:30;16.00;67.60
78733;DHT22;68056;52.530;5.454;2023-08-08T04:33:05;16.00;67.50
78733;DHT22;68056;52.530;5.454;2023-08-08T04:35:31;16.00;67.40
78733;DHT22;68056;52.530;5.454;2023-08-08T04:37:56;16.00;67.50
78733;DHT22;68056;52.530;5.454;2023-08-08T04:40:22;15.90;67.40
78733;DHT22;68056;52.530;5.454;2023-08-08T04:42:47;15.90;67.40
78733;DHT22;68056;52.530;5.454;2023-08-08T04:45:13;15.90;67.30
78733;DHT22;68056;52.530;5.454;2023-08-08T04:47:39;15.90;67.30
78733;DHT22;68056;52.530;5.454;2023-08-08T04:50:05;15.80;67.30
78733;DHT22;68056;52.530;5.454;2023-08-08T04:52:31;15.80;67.30
78733;DHT22;68056;52.530;5.454;2023-08-08T04:54:57;15.90;67.20
78733;DHT22;68056;52.530;5.454;2023-08-08T04:57:22;15.90;67.20
78733;DHT22;68056;52.530;5.454;2023-08-08T04:59:49;15.90;67.00
78733;DHT22;68056;52.530;5.454;2023-08-08T05:02:15;15.90;67.00
78733;DHT22;68056;52.530;5.454;2023-08-08T05:04:41;15.90;67.00
78733;DHT22;68056;52.530;5.454;2023-08-08T05:07:07;15.90;67.10
78733;DHT22;68056;52.530;5.454;2023-08-08T05:09:33;15.90;67.10
78733;DHT22;68056;52.530;5.454;2023-08-08T05:11:58;15.80;67.10
78733;DHT22;68056;52.530;5.454;2023-08-08T05:14:24;15.90;67.10
78733;DHT22;68056;52.530;5.454;2023-08-08T05:16:49;15.80;67.10
78733;DHT22;68056;52.530;5.454;2023-08-08T05:19:15;15.80;66.90
78733;DHT22;68056;52.530;5.454;2023-08-08T05:21:41;15.80;66.80
78733;DHT22;68056;52.530;5.454;2023-08-08T05:24:06;15.80;66.70
78733;DHT22;68056;52.530;5.454;2023-08-08T05:26:32;15.90;66.70
78733;DHT22;68056;52.530;5.454;2023-08-08T05:28:58;15.90;66.80
78733;DHT22;68056;52.530;5.454;2023-08-08T05:31:24;16.00;66.80
78733;DHT22;68056;52.530;5.454;2023-08-08T05:33:49;16.00;66.70
78733;DHT22;68056;52.530;5.454;2023-08-08T05:36:15;16.00;66.60
78733;DHT22;68056;52.530;5.454;2023-08-08T05:38:40;16.00;66.70
78733;DHT22;68056;52.530;5.454;2023-08-08T05:41:07;16.00;66.70
78733;DHT22;68056;52.530;5.454;2023-08-08T05:43:33;16.10;66.80
78733;DHT22;68056;52.530;5.454;2023-08-08T05:45:58;16.10;66.70
78733;DHT22;68056;52.530;5.454;2023-08-08T05:48:24;16.30;66.60
78733;DHT22;68056;52.530;5.454;2023-08-08T05:50:50;16.40;66.50
78733;DHT22;68056;52.530;5.454;2023-08-08T05:53:15;16.50;66.30
78733;DHT22;68056;52.530;5.454;2023-08-08T05:55:41;16.70;66.20
78733;DHT22;68056;52.530;5.454;2023-08-08T05:58:10;16.80;66.10
78733;DHT22;68056;52.530;5.454;2023-08-08T06:00:35;16.90;65.90
78733;DHT22;68056;52.530;5.454;2023-08-08T06:03:01;17.00;65.80
78733;DHT22;68056;52.530;5.454;2023-08-08T06:05:27;17.10;65.60
78733;DHT22;68056;52.530;5.454;2023-08-08T06:07:53;17.20;65.60
78733;DHT22;68056;52.530;5.454;2023-08-08T06:10:21;17.30;65.40
78733;DHT22;68056;52.530;5.454;2023-08-08T06:12:46;17.40;65.30
78733;DHT22;68056;52.530;5.454;2023-08-08T06:15:12;17.50;65.00
78733;DHT22;68056;52.530;5.454;2023-08-08T06:17:38;17.50;65.00
78733;DHT22;68056;52.530;5.454;2023-08-08T06:20:04;17.60;64.80
78733;DHT22;68056;52.530;5.454;2023-08-08T06:22:32;17.70;64.50
78733;DHT22;68056;52.530;5.454;2023-08-08T06:24:57;17.80;64.40
78733;DHT22;68056;52.530;5.454;2023-08-08T06:27:23;17.90;64.10
78733;DHT22;68056;52.530;5.454;2023-08-08T06:29:49;18.00;63.90
78733;DHT22;68056;52.530;5.454;2023-08-08T06:32:14;18.00;63.90
78733;DHT22;68056;52.530;5.454;2023-08-08T06:34:40;18.10;63.90
78733;DHT22;68056;52.530;5.454;2023-08-08T06:37:05;18.20;63.70
78733;DHT22;68056;52.530;5.454;2023-08-08T06:39:31;18.30;63.70
78733;DHT22;68056;52.530;5.454;2023-08-08T06:41:57;18.30;63.50
78733;DHT22;68056;52.530;5.454;2023-08-08T06:44:24;18.40;63.10
78733;DHT22;68056;52.530;5.454;2023-08-08T06:46:50;18.50;63.00
78733;DHT22;68056;52.530;5.454;2023-08-08T06:49:16;18.60;62.90
78733;DHT22;68056;52.530;5.454;2023-08-08T06:51:42;18.60;62.90
78733;DHT22;68056;52.530;5.454;2023-08-08T06:54:07;18.70;62.70
78733;DHT22;68056;52.530;5.454;2023-08-08T06:56:33;18.80;62.60
78733;DHT22;68056;52.530;5.454;2023-08-08T06:58:59;19.00;62.50
78733;DHT22;68056;52.530;5.454;2023-08-08T07:01:24;19.10;62.40
78733;DHT22;68056;52.530;5.454;2023-08-08T07:04:02;19.20;62.20
78733;DHT22;68056;52.530;5.454;2023-08-08T07:06:29;19.20;61.80
78733;DHT22;68056;52.530;5.454;2023-08-08T07:08:54;19.30;61.60
78733;DHT22;68056;52.530;5.454;2023-08-08T07:11:20;19.30;61.20
78733;DHT22;68056;52.530;5.454;2023-08-08T07:13:46;19.40;61.20
78733;DHT22;68056;52.530;5.454;2023-08-08T07:16:11;19.50;61.20
78733;DHT22;68056;52.530;5.454;2023-08-08T07:18:40;19.50;61.20
78733;DHT22;68056;52.530;5.454;2023-08-08T07:21:08;19.40;61.30
78733;DHT22;68056;52.530;5.454;2023-08-08T07:23:34;19.30;61.20
78733;DHT22;68056;52.530;5.454;2023-08-08T07:26:00;19.10;61.10
78733;DHT22;68056;52.530;5.454;2023-08-08T07:28:26;19.00;61.40
78733;DHT22;68056;52.530;5.454;2023-08-08T07:30:51;18.90;61.50
78733;DHT22;68056;52.530;5.454;2023-08-08T07:33:17;18.80;61.70
78733;DHT22;68056;52.530;5.454;2023-08-08T07:35:43;18.80;61.90
78733;DHT22;68056;52.530;5.454;2023-08-08T07:38:09;18.80;61.70
78733;DHT22;68056;52.530;5.454;2023-08-08T07:40:35;18.70;61.60
78733;DHT22;68056;52.530;5.454;2023-08-08T07:43:01;18.70;61.70
78733;DHT22;68056;52.530;5.454;2023-08-08T07:45:26;18.60;61.90
78733;DHT22;68056;52.530;5.454;2023-08-08T07:47:52;18.70;61.90
78733;DHT22;68056;52.530;5.454;2023-08-08T07:50:18;18.70;61.90
78733;DHT22;68056;52.530;5.454;2023-08-08T07:52:44;18.70;61.80
78733;DHT22;68056;52.530;5.454;2023-08-08T07:55:20;18.70;61.90
78733;DHT22;68056;52.530;5.454;2023-08-08T07:57:51;18.70;62.00
78733;DHT22;68056;52.530;5.454;2023-08-08T08:00:46;18.60;62.10
78733;DHT22;68056;52.530;5.454;2023-08-08T08:03:12;18.70;62.20
78733;DHT22;68056;52.530;5.454;2023-08-08T08:05:40;18.70;62.30
78733;DHT22;68056;52.530;5.454;2023-08-08T08:08:34;18.70;62.20
78733;DHT22;68056;52.530;5.454;2023-08-08T08:11:03;18.60;62.40
78733;DHT22;68056;52.530;5.454;2023-08-08T08:13:41;18.50;62.60
78733;DHT22;68056;52.530;5.454;2023-08-08T08:16:38;18.50;62.50
78733;DHT22;68056;52.530;5.454;2023-08-08T08:19:09;18.70;62.30
78733;DHT22;68056;52.530;5.454;2023-08-08T08:21:36;19.10;61.80
78733;DHT22;68056;52.530;5.454;2023-08-08T08:24:13;19.50;61.40
78733;DHT22;68056;52.530;5.454;2023-08-08T08:26:42;19.90;60.70
78733;DHT22;68056;52.530;5.454;2023-08-08T08:29:27;20.20;60.20
78733;DHT22;68056;52.530;5.454;2023-08-08T08:32:13;20.60;60.00
78733;DHT22;68056;52.530;5.454;2023-08-08T08:37:34;21.30;59.10
78733;DHT22;68056;52.530;5.454;2023-08-08T08:40:02;21.30;58.80
78733;DHT22;68056;52.530;5.454;2023-08-08T08:42:39;20.90;59.10
78733;DHT22;68056;52.530;5.454;2023-08-08T08:45:20;20.50;59.80
78733;DHT22;68056;52.530;5.454;2023-08-08T08:47:56;20.50;60.40
78733;DHT22;68056;52.530;5.454;2023-08-08T08:50:27;20.80;60.30
78733;DHT22;68056;52.530;5.454;2023-08-08T08:53:09;20.80;59.90
78733;DHT22;68056;52.530;5.454;2023-08-08T08:55:35;20.60;60.20
78733;DHT22;68056;52.530;5.454;2023-08-08T08:58:03;20.30;60.30
78733;DHT22;68056;52.530;5.454;2023-08-08T09:00:30;19.90;60.80
78733;DHT22;68056;52.530;5.454;2023-08-08T09:02:58;19.50;61.20
78733;DHT22;68056;52.530;5.454;2023-08-08T09:05:25;19.30;61.60
78733;DHT22;68056;52.530;5.454;2023-08-08T09:07:51;19.00;62.10
78733;DHT22;68056;52.530;5.454;2023-08-08T09:10:19;18.90;62.60
78733;DHT22;68056;52.530;5.454;2023-08-08T09:12:49;18.60;63.00
78733;DHT22;68056;52.530;5.454;2023-08-08T09:15:35;18.60;63.20
78733;DHT22;68056;52.530;5.454;2023-08-08T09:18:31;18.50;63.40
78733;DHT22;68056;52.530;5.454;2023-08-08T09:21:15;18.40;63.50
78733;DHT22;68056;52.530;5.454;2023-08-08T09:23:48;18.90;63.40
78733;DHT22;68056;52.530;5.454;2023-08-08T09:26:40;19.30;62.70
78733;DHT22;68056;52.530;5.454;2023-08-08T09:29:14;19.40;62.50
78733;DHT22;68056;52.530;5.454;2023-08-08T09:31:40;19.50;61.90
78733;DHT22;68056;52.530;5.454;2023-08-08T09:34:06;19.50;61.60
78733;DHT22;68056;52.530;5.454;2023-08-08T09:36:32;19.40;61.70
78733;DHT22;68056;52.530;5.454;2023-08-08T09:38:59;19.30;62.00
78733;DHT22;68056;52.530;5.454;2023-08-08T09:41:25;19.20;62.10
78733;DHT22;68056;52.530;5.454;2023-08-08T09:43:52;19.20;62.10
78733;DHT22;68056;52.530;5.454;2023-08-08T09:46:22;19.10;62.30
78733;DHT22;68056;52.530;5.454;2023-08-08T09:48:48;18.90;62.30
78733;DHT22;68056;52.530;5.454;2023-08-08T09:51:14;18.70;62.60
78733;DHT22;68056;52.530;5.454;2023-08-08T09:53:41;18.50;62.80
78733;DHT22;68056;52.530;5.454;2023-08-08T09:56:07;18.50;63.10
78733;DHT22;68056;52.530;5.454;2023-08-08T09:58:34;18.60;63.10
78733;DHT22;68056;52.530;5.454;2023-08-08T10:01:00;18.80;63.10
78733;DHT22;68056;52.530;5.454;2023-08-08T10:03:26;19.20;62.60
78733;DHT22;68056;52.530;5.454;2023-08-08T10:05:52;19.50;62.20
78733;DHT22;68056;52.530;5.454;2023-08-08T10:08:18;19.60;62.10
78733;DHT22;68056;52.530;5.454;2023-08-08T10:10:46;19.70;62.10
78733;DHT22;68056;52.530;5.454;2023-08-08T10:13:22;20.00;61.50
78733;DHT22;68056;52.530;5.454;2023-08-08T10:15:48;20.30;60.90
78733;DHT22;68056;52.530;5.454;2023-08-08T10:18:14;20.50;60.60
78733;DHT22;68056;52.530;5.454;2023-08-08T10:20:43;20.80;59.80
78733;DHT22;68056;52.530;5.454;2023-08-08T10:23:10;20.90;59.60
78733;DHT22;68056;52.530;5.454;2023-08-08T10:25:35;21.10;59.60
78733;DHT22;68056;52.530;5.454;2023-08-08T10:28:12;21.40;59.30
78733;DHT22;68056;52.530;5.454;2023-08-08T10:30:54;21.60;58.80
78733;DHT22;68056;52.530;5.454;2023-08-08T10:33:28;21.40;58.60
78733;DHT22;68056;52.530;5.454;2023-08-08T10:36:06;21.40;58.60
78733;DHT22;68056;52.530;5.454;2023-08-08T10:38:45;21.50;58.20
78733;DHT22;68056;52.530;5.454;2023-08-08T10:41:17;21.60;58.00
78733;DHT22;68056;52.530;5.454;2023-08-08T10:43:51;21.50;58.00
78733;DHT22;68056;52.530;5.454;2023-08-08T10:46:30;21.30;57.90
78733;DHT22;68056;52.530;5.454;2023-08-08T10:48:58;20.80;58.50
78733;DHT22;68056;52.530;5.454;2023-08-08T10:51:34;20.40;59.00
78733;DHT22;68056;52.530;5.454;2023-08-08T10:54:04;20.00;59.80
78733;DHT22;68056;52.530;5.454;2023-08-08T10:56:30;20.00;60.10
78733;DHT22;68056;52.530;5.454;2023-08-08T10:58:57;20.00;60.20
78733;DHT22;68056;52.530;5.454;2023-08-08T11:01:26;20.30;60.20
78733;DHT22;68056;52.530;5.454;2023-08-08T11:03:52;20.60;59.70
78733;DHT22;68056;52.530;5.454;2023-08-08T11:06:18;21.00;59.00
78733;DHT22;68056;52.530;5.454;2023-08-08T11:08:44;21.30;58.20
78733;DHT22;68056;52.530;5.454;2023-08-08T11:11:10;21.30;57.90
78733;DHT22;68056;52.530;5.454;2023-08-08T11:13:35;21.40;58.20
78733;DHT22;68056;52.530;5.454;2023-08-08T11:16:01;21.50;57.90
78733;DHT22;68056;52.530;5.454;2023-08-08T11:18:27;21.70;57.80
78733;DHT22;68056;52.530;5.454;2023-08-08T11:20:53;21.80;57.70
78733;DHT22;68056;52.530;5.454;2023-08-08T11:23:19;22.00;57.50
78733;DHT22;68056;52.530;5.454;2023-08-08T11:25:47;22.20;56.50
78733;DHT22;68056;52.530;5.454;2023-08-08T11:28:13;22.00;56.20
78733;DHT22;68056;52.530;5.454;2023-08-08T11:30:43;21.90;56.30
78733;DHT22;68056;52.530;5.454;2023-08-08T11:33:14;21.70;56.90
78733;DHT22;68056;52.530;5.454;2023-08-08T11:35:44;21.90;56.80
78733;DHT22;68056;52.530;5.454;2023-08-08T11:38:12;22.00;56.30
78733;DHT22;68056;52.530;5.454;2023-08-08T11:40:39;22.10;56.40
78733;DHT22;68056;52.530;5.454;2023-08-08T11:43:05;22.30;56.20
78733;DHT22;68056;52.530;5.454;2023-08-08T11:45:31;22.50;56.10
78733;DHT22;68056;52.530;5.454;2023-08-08T11:47:58;22.70;55.90
78733;DHT22;68056;52.530;5.454;2023-08-08T11:50:25;22.80;55.40
78733;DHT22;68056;52.530;5.454;2023-08-08T11:52:54;23.00;55.50
78733;DHT22;68056;52.530;5.454;2023-08-08T11:55:21;23.10;55.00
78733;DHT22;68056;52.530;5.454;2023-08-08T11:57:48;23.00;55.30
78733;DHT22;68056;52.530;5.454;2023-08-08T12:00:14;22.90;55.50
78733;DHT22;68056;52.530;5.454;2023-08-08T12:02:41;22.80;55.40
78733;DHT22;68056;52.530;5.454;2023-08-08T12:05:11;22.70;55.60
78733;DHT22;68056;52.530;5.454;2023-08-08T12:07:39;22.50;55.60
78733;DHT22;68056;52.530;5.454;2023-08-08T12:10:25;22.60;55.90
78733;DHT22;68056;52.530;5.454;2023-08-08T12:12:55;22.80;55.90
78733;DHT22;68056;52.530;5.454;2023-08-08T12:15:23;22.90;55.80
78733;DHT22;68056;52.530;5.454;2023-08-08T12:17:49;22.90;55.00
78733;DHT22;68056;52.530;5.454;2023-08-08T12:20:15;22.70;55.10
78733;DHT22;68056;52.530;5.454;2023-08-08T12:22:40;22.80;55.50
78733;DHT22;68056;52.530;5.454;2023-08-08T12:25:06;23.10;55.50
78733;DHT22;68056;52.530;5.454;2023-08-08T12:27:33;23.30;55.50
78733;DHT22;68056;52.530;5.454;2023-08-08T12:29:59;23.60;55.50
78733;DHT22;68056;52.530;5.454;2023-08-08T12:32:26;23.60;54.70
78733;DHT22;68056;52.530;5.454;2023-08-08T12:34:54;23.40;54.90
78733;DHT22;68056;52.530;5.454;2023-08-08T12:37:20;23.30;54.90
78733;DHT22;68056;52.530;5.454;2023-08-08T12:39:45;23.10;55.00
78733;DHT22;68056;52.530;5.454;2023-08-08T12:42:11;22.90;55.40
78733;DHT22;68056;52.530;5.454;2023-08-08T12:44:36;22.70;55.60
78733;DHT22;68056;52.530;5.454;2023-08-08T12:47:02;22.50;55.70
78733;DHT22;68056;52.530;5.454;2023-08-08T12:49:28;22.40;56.00
78733;DHT22;68056;52.530;5.454;2023-08-08T12:51:53;22.30;56.30
78733;DHT22;68056;52.530;5.454;2023-08-08T12:54:21;22.40;55.90
78733;DHT22;68056;52.530;5.454;2023-08-08T12:56:47;22.50;55.70
78733;DHT22;68056;52.530;5.454;2023-08-08T12:59:12;22.20;55.90
78733;DHT22;68056;52.530;5.454;2023-08-08T13:01:38;22.10;55.70
78733;DHT22;68056;52.530;5.454;2023-08-08T13:04:04;22.30;56.10
78733;DHT22;68056;52.530;5.454;2023-08-08T13:06:40;22.50;56.20
78733;DHT22;68056;52.530;5.454;2023-08-08T13:09:08;22.50;56.20
78733;DHT22;68056;52.530;5.454;2023-08-08T13:11:35;22.20;56.50
78733;DHT22;68056;52.530;5.454;2023-08-08T13:14:01;22.00;56.80
78733;DHT22;68056;52.530;5.454;2023-08-08T13:16:26;21.70;57.00
78733;DHT22;68056;52.530;5.454;2023-08-08T13:18:52;21.90;57.20
78733;DHT22;68056;52.530;5.454;2023-08-08T13:21:18;22.10;56.50
78733;DHT22;68056;52.530;5.454;2023-08-08T13:23:43;22.20;56.50
78733;DHT22;68056;52.530;5.454;2023-08-08T13:26:09;22.20;56.60
78733;DHT22;68056;52.530;5.454;2023-08-08T13:28:34;22.00;56.30
78733;DHT22;68056;52.530;5.454;2023-08-08T13:31:00;21.90;56.10
78733;DHT22;68056;52.530;5.454;2023-08-08T13:33:32;22.00;56.10
78733;DHT22;68056;52.530;5.454;2023-08-08T13:35:59;22.20;55.70
78733;DHT22;68056;52.530;5.454;2023-08-08T13:38:25;22.20;55.60
78733;DHT22;68056;52.530;5.454;2023-08-08T13:40:51;22.40;55.40
78733;DHT22;68056;52.530;5.454;2023-08-08T13:43:16;22.60;55.20
78733;DHT22;68056;52.530;5.454;2023-08-08T13:45:42;22.60;54.60
78733;DHT22;68056;52.530;5.454;2023-08-08T13:48:07;22.60;54.40
78733;DHT22;68056;52.530;5.454;2023-08-08T13:50:33;22.60;54.50
78733;DHT22;68056;52.530;5.454;2023-08-08T13:52:59;22.70;54.70
78733;DHT22;68056;52.530;5.454;2023-08-08T13:55:24;22.60;54.80
78733;DHT22;68056;52.530;5.454;2023-08-08T13:57:52;22.50;55.00
78733;DHT22;68056;52.530;5.454;2023-08-08T14:00:20;22.30;55.30
78733;DHT22;68056;52.530;5.454;2023-08-08T14:02:47;22.20;55.70
78733;DHT22;68056;52.530;5.454;2023-08-08T14:05:13;22.40;55.70
78733;DHT22;68056;52.530;5.454;2023-08-08T14:07:39;22.30;55.60
78733;DHT22;68056;52.530;5.454;2023-08-08T14:10:05;22.10;55.70
78733;DHT22;68056;52.530;5.454;2023-08-08T14:12:34;21.90;56.10
78733;DHT22;68056;52.530;5.454;2023-08-08T14:15:17;21.70;56.40
78733;DHT22;68056;52.530;5.454;2023-08-08T14:17:46;21.70;56.50
78733;DHT22;68056;52.530;5.454;2023-08-08T14:20:29;21.40;56.50
78733;DHT22;68056;52.530;5.454;2023-08-08T14:22:59;21.00;56.90
78733;DHT22;68056;52.530;5.454;2023-08-08T14:25:25;20.70;57.60
78733;DHT22;68056;52.530;5.454;2023-08-08T14:27:54;20.60;57.90
78733;DHT22;68056;52.530;5.454;2023-08-08T14:30:19;20.60;58.00
78733;DHT22;68056;52.530;5.454;2023-08-08T14:32:46;20.70;58.00
78733;DHT22;68056;52.530;5.454;2023-08-08T14:35:12;20.80;58.00
78733;DHT22;68056;52.530;5.454;2023-08-08T14:37:40;20.80;57.90
78733;DHT22;68056;52.530;5.454;2023-08-08T14:40:07;20.70;58.00
78733;DHT22;68056;52.530;5.454;2023-08-08T14:42:33;20.50;58.20
78733;DHT22;68056;52.530;5.454;2023-08-08T14:44:59;20.30;58.50
78733;DHT22;68056;52.530;5.454;2023-08-08T14:47:25;20.10;58.80
78733;DHT22;68056;52.530;5.454;2023-08-08T14:49:56;20.10;59.00
78733;DHT22;68056;52.530;5.454;2023-08-08T14:52:32;20.10;59.00
78733;DHT22;68056;52.530;5.454;2023-08-08T14:54:58;20.30;59.20
78733;DHT22;68056;52.530;5.454;2023-08-08T14:57:24;20.30;59.10
78733;DHT22;68056;52.530;5.454;2023-08-08T15:00:06;20.50;58.90
78733;DHT22;68056;52.530;5.454;2023-08-08T15:02:32;20.50;58.80
78733;DHT22;68056;52.530;5.454;2023-08-08T15:05:00;20.40;58.80
78733;DHT22;68056;52.530;5.454;2023-08-08T15:07:26;20.20;59.00
78733;DHT22;68056;52.530;5.454;2023-08-08T15:09:52;20.10;59.10
78733;DHT22;68056;52.530;5.454;2023-08-08T15:12:18;20.00;59.30
78733;DHT22;68056;52.530;5.454;2023-08-08T15:14:47;20.10;59.40
78733;DHT22;68056;52.530;5.454;2023-08-08T15:17:14;20.20;59.50
78733;DHT22;68056;52.530;5.454;2023-08-08T15:19:40;20.50;59.50
78733;DHT22;68056;52.530;5.454;2023-08-08T15:22:05;20.60;59.40
78733;DHT22;68056;52.530;5.454;2023-08-08T15:24:32;20.80;59.30
78733;DHT22;68056;52.530;5.454;2023-08-08T15:26:59;20.80;59.10
78733;DHT22;68056;52.530;5.454;2023-08-08T15:29:25;20.90;58.90
78733;DHT22;68056;52.530;5.454;2023-08-08T15:31:50;20.80;58.90
78733;DHT22;68056;52.530;5.454;2023-08-08T15:34:16;20.70;59.00
78733;DHT22;68056;52.530;5.454;2023-08-08T15:36:44;20.70;59.10
78733;DHT22;68056;52.530;5.454;2023-08-08T15:39:10;20.60;59.20